CFDIA CNC3-CYKF
Flight info
| Callsign | CFDIA |
|---|---|
| Flight time | N/A |
| Altitude | 5500 |
| Route | VFR |
| Aircraft | DA40/L-SBDFGRY/S |
Departure
| Time | 2026-05-07 00:00 |
|---|---|
| Airport | Brampton-Caledon Airport (CNC3) |
Arrival
| Time | N/A |
|---|---|
| Airport | Region of Waterloo International Airport (CYKF) |
| Time | Latitude | Longitude | Altitude | Speed | Heading |
|---|---|---|---|---|---|
| 2026-05-07 00:00 | 43.79499 | -79.97427 | 2497 ft | 128 kts | 228° |
| 2026-05-07 00:00 | 43.79048 | -79.97951 | 2499 ft | 129 kts | 227° |
| 2026-05-07 00:01 | 43.78142 | -79.99034 | 2494 ft | 129 kts | 230° |
| 2026-05-07 00:01 | 43.77468 | -79.99852 | 2495 ft | 129 kts | 229° |
| 2026-05-07 00:01 | 43.76836 | -80.00615 | 2762 ft | 109 kts | 229° |
| 2026-05-07 00:01 | 43.76313 | -80.01237 | 3125 ft | 94 kts | 230° |
| 2026-05-07 00:02 | 43.75866 | -80.01770 | 3499 ft | 77 kts | 233° |
| 2026-05-07 00:02 | 43.75467 | -80.02258 | 3750 ft | 79 kts | 234° |
| 2026-05-07 00:02 | 43.75052 | -80.02765 | 3992 ft | 80 kts | 234° |
| 2026-05-07 00:02 | 43.74634 | -80.03276 | 4247 ft | 80 kts | 234° |
| 2026-05-07 00:03 | 43.74218 | -80.03784 | 4489 ft | 80 kts | 235° |
| 2026-05-07 00:03 | 43.73752 | -80.04365 | 4513 ft | 101 kts | 233° |
| 2026-05-07 00:03 | 43.73184 | -80.05073 | 4511 ft | 115 kts | 232° |
| 2026-05-07 00:03 | 43.72575 | -80.05822 | 4512 ft | 122 kts | 231° |
| 2026-05-07 00:04 | 43.71936 | -80.06599 | 4510 ft | 123 kts | 231° |
| 2026-05-07 00:04 | 43.71280 | -80.07394 | 4512 ft | 127 kts | 231° |
| 2026-05-07 00:04 | 43.70610 | -80.08207 | 4508 ft | 129 kts | 231° |
| 2026-05-07 00:04 | 43.69937 | -80.09023 | 4504 ft | 128 kts | 231° |
| 2026-05-07 00:05 | 43.69264 | -80.09841 | 4507 ft | 129 kts | 231° |
| 2026-05-07 00:05 | 43.68588 | -80.10662 | 4502 ft | 129 kts | 231° |
| 2026-05-07 00:05 | 43.67914 | -80.11481 | 4504 ft | 129 kts | 231° |
| 2026-05-07 00:05 | 43.67242 | -80.12297 | 4502 ft | 128 kts | 230° |
| 2026-05-07 00:06 | 43.66574 | -80.13109 | 4506 ft | 128 kts | 230° |
| 2026-05-07 00:06 | 43.65910 | -80.13913 | 4506 ft | 129 kts | 231° |
| 2026-05-07 00:06 | 43.65237 | -80.14729 | 4505 ft | 129 kts | 231° |
| 2026-05-07 00:06 | 43.64567 | -80.15542 | 4504 ft | 128 kts | 230° |
| 2026-05-07 00:07 | 43.63903 | -80.16349 | 4500 ft | 126 kts | 230° |
| 2026-05-07 00:07 | 43.63247 | -80.17156 | 4501 ft | 126 kts | 231° |
| 2026-05-07 00:07 | 43.62596 | -80.17953 | 4500 ft | 124 kts | 231° |
| 2026-05-07 00:07 | 43.61951 | -80.18737 | 4501 ft | 123 kts | 230° |
| 2026-05-07 00:08 | 43.61306 | -80.19518 | 4498 ft | 123 kts | 231° |
| 2026-05-07 00:08 | 43.60664 | -80.20294 | 4495 ft | 122 kts | 231° |
| 2026-05-07 00:08 | 43.60036 | -80.21054 | 4504 ft | 122 kts | 231° |
| 2026-05-07 00:08 | 43.59396 | -80.21828 | 4502 ft | 123 kts | 231° |
| 2026-05-07 00:09 | 43.58753 | -80.22605 | 4493 ft | 123 kts | 230° |
| 2026-05-07 00:09 | 43.58111 | -80.23380 | 4496 ft | 122 kts | 231° |
| 2026-05-07 00:09 | 43.57470 | -80.24154 | 4492 ft | 122 kts | 231° |
| 2026-05-07 00:09 | 43.56831 | -80.24925 | 4493 ft | 122 kts | 231° |
| 2026-05-07 00:10 | 43.56193 | -80.25694 | 4495 ft | 122 kts | 231° |
| 2026-05-07 00:10 | 43.55555 | -80.26464 | 4492 ft | 122 kts | 231° |
| 2026-05-07 00:10 | 43.54916 | -80.27234 | 4490 ft | 122 kts | 231° |
| 2026-05-07 00:10 | 43.54495 | -80.27742 | 4485 ft | 122 kts | 231° |
| 2026-05-07 00:11 | 43.53832 | -80.28548 | 4277 ft | 134 kts | 230° |
| 2026-05-07 00:11 | 43.53102 | -80.29436 | 3999 ft | 145 kts | 228° |
| 2026-05-07 00:11 | 43.52058 | -80.30686 | 3649 ft | 153 kts | 226° |
| 2026-05-07 00:11 | 43.51255 | -80.31638 | 3363 ft | 155 kts | 228° |
| 2026-05-07 00:12 | 43.50730 | -80.32347 | 3134 ft | 156 kts | 230° |
| 2026-05-07 00:12 | 43.50046 | -80.33408 | 2956 ft | 146 kts | 231° |
| 2026-05-07 00:12 | 43.49506 | -80.34549 | 2717 ft | 143 kts | 248° |
| 2026-05-07 00:12 | 43.49072 | -80.35774 | 2513 ft | 141 kts | 247° |
| 2026-05-07 00:13 | 43.48639 | -80.36961 | 2382 ft | 137 kts | 249° |
| 2026-05-07 00:13 | 43.48210 | -80.38107 | 2193 ft | 138 kts | 241° |
| 2026-05-07 00:13 | 43.47366 | -80.38422 | 2046 ft | 142 kts | 159° |
| 2026-05-07 00:13 | 43.46692 | -80.37485 | 1930 ft | 135 kts | 124° |
| 2026-05-07 00:14 | 43.46197 | -80.36475 | 2071 ft | 126 kts | 124° |
| 2026-05-07 00:14 | 43.45631 | -80.35541 | 2037 ft | 126 kts | 154° |
| 2026-05-07 00:14 | 43.44946 | -80.35604 | 1986 ft | 89 kts | 226° |
| 2026-05-07 00:14 | 43.44807 | -80.36305 | 1785 ft | 73 kts | 277° |
| 2026-05-07 00:15 | 43.44982 | -80.36896 | 1553 ft | 61 kts | 301° |
| 2026-05-07 00:15 | 43.45216 | -80.37368 | 1362 ft | 62 kts | 309° |
| 2026-05-07 00:15 | 43.45475 | -80.37819 | 1204 ft | 57 kts | 309° |
| 2026-05-07 00:15 | 43.45734 | -80.38268 | 1029 ft | 54 kts | 306° |
| 2026-05-07 00:16 | 43.45946 | -80.38637 | 1033 ft | 60 kts | 309° |
| 2026-05-07 00:16 | 43.46208 | -80.39115 | 1257 ft | 64 kts | 305° |
| 2026-05-07 00:16 | 43.46462 | -80.39594 | 1539 ft | 60 kts | 313° |
| 2026-05-07 00:16 | 43.46803 | -80.39870 | 1825 ft | 61 kts | 336° |
| 2026-05-07 00:17 | 43.47260 | -80.39751 | 2055 ft | 75 kts | 34° |
| 2026-05-07 00:17 | 43.47477 | -80.39038 | 2296 ft | 88 kts | 81° |
| 2026-05-07 00:17 | 43.47481 | -80.38253 | 2605 ft | 82 kts | 79° |
| 2026-05-07 00:17 | 43.47579 | -80.37407 | 2735 ft | 102 kts | 67° |
| 2026-05-07 00:18 | 43.47753 | -80.36503 | 3102 ft | 89 kts | 67° |
| 2026-05-07 00:18 | 43.47903 | -80.35682 | 3358 ft | 89 kts | 68° |
| 2026-05-07 00:18 | 43.48046 | -80.34845 | 3603 ft | 90 kts | 69° |
| 2026-05-07 00:18 | 43.48190 | -80.33996 | 3849 ft | 92 kts | 67° |
| 2026-05-07 00:19 | 43.48334 | -80.33125 | 4090 ft | 94 kts | 67° |
| 2026-05-07 00:19 | 43.48480 | -80.32234 | 4320 ft | 96 kts | 67° |